Аэропорт: Якутск. Якутск

ICAO: UEEE

METAR:
2018/11/21 18:30
UEEE 211830Z 00000MPS 9999 -SN NSC M29/M32 Q1016 R23L/490150 NOSIG RMK QFE754
METAR:
2018/11/21 18:22
TAF UEEE 211700Z 2118/2224 33003MPS 3200 -SN SCT020 
      TEMPO 2121/2206 0300 FG VV003